sensor_id;sensor_type;location;lat;lon;timestamp;pressure;altitude;pressure_sealevel;temperature;humidity
13058;BME280;6595;49.578;11.012;2023-11-22T00:00:23;992.125;;;4.45;80.4
13058;BME280;6595;49.578;11.012;2023-11-22T00:02:23;992.142;;;4.47;80.4
13058;BME280;6595;49.578;11.012;2023-11-22T00:04:24;992.147;;;4.45;81.1
13058;BME280;6595;49.578;11.012;2023-11-22T00:06:23;992.147;;;4.45;81.1
13058;BME280;6595;49.578;11.012;2023-11-22T00:08:23;992.199;;;4.39;80.9
13058;BME280;6595;49.578;11.012;2023-11-22T00:10:24;992.163;;;4.38;80.5
13058;BME280;6595;49.578;11.012;2023-11-22T00:12:24;992.242;;;4.34;80.5
13058;BME280;6595;49.578;11.012;2023-11-22T00:14:24;992.255;;;4.37;80.2
13058;BME280;6595;49.578;11.012;2023-11-22T00:16:23;992.227;;;4.42;80.5
13058;BME280;6595;49.578;11.012;2023-11-22T00:18:23;992.337;;;4.39;80.0
13058;BME280;6595;49.578;11.012;2023-11-22T00:20:24;992.224;;;4.28;79.1
13058;BME280;6595;49.578;11.012;2023-11-22T00:22:23;992.330;;;4.24;81.1
13058;BME280;6595;49.578;11.012;2023-11-22T00:24:23;992.337;;;4.24;79.9
13058;BME280;6595;49.578;11.012;2023-11-22T00:26:24;992.320;;;4.11;79.5
13058;BME280;6595;49.578;11.012;2023-11-22T00:28:23;992.261;;;4.09;78.5
13058;BME280;6595;49.578;11.012;2023-11-22T00:30:24;992.418;;;4.00;79.0
13058;BME280;6595;49.578;11.012;2023-11-22T00:32:23;992.344;;;4.00;79.7
13058;BME280;6595;49.578;11.012;2023-11-22T00:34:23;992.465;;;4.08;79.7
13058;BME280;6595;49.578;11.012;2023-11-22T00:36:24;992.465;;;4.08;79.7
13058;BME280;6595;49.578;11.012;2023-11-22T00:38:24;992.465;;;4.08;79.7
13058;BME280;6595;49.578;11.012;2023-11-22T00:40:23;992.358;;;3.85;77.0
13058;BME280;6595;49.578;11.012;2023-11-22T00:42:24;992.387;;;3.84;77.3
13058;BME280;6595;49.578;11.012;2023-11-22T00:44:23;992.520;;;3.74;76.6
13058;BME280;6595;49.578;11.012;2023-11-22T00:46:24;992.538;;;3.74;76.8
13058;BME280;6595;49.578;11.012;2023-11-22T00:48:24;992.588;;;3.67;78.2
13058;BME280;6595;49.578;11.012;2023-11-22T00:50:23;992.616;;;3.70;77.6
13058;BME280;6595;49.578;11.012;2023-11-22T00:52:24;992.631;;;3.74;77.9
13058;BME280;6595;49.578;11.012;2023-11-22T00:54:23;992.532;;;3.64;76.7
13058;BME280;6595;49.578;11.012;2023-11-22T00:56:24;992.495;;;3.67;78.0
13058;BME280;6595;49.578;11.012;2023-11-22T00:58:23;992.754;;;3.66;77.1
13058;BME280;6595;49.578;11.012;2023-11-22T01:00:23;992.665;;;3.64;77.2
13058;BME280;6595;49.578;11.012;2023-11-22T01:02:23;992.711;;;3.61;77.4
13058;BME280;6595;49.578;11.012;2023-11-22T01:04:23;992.724;;;3.71;79.1
13058;BME280;6595;49.578;11.012;2023-11-22T01:06:24;992.748;;;3.78;78.4
13058;BME280;6595;49.578;11.012;2023-11-22T01:08:23;992.808;;;3.71;77.7
13058;BME280;6595;49.578;11.012;2023-11-22T01:10:23;992.722;;;3.66;77.4
13058;BME280;6595;49.578;11.012;2023-11-22T01:12:24;992.871;;;3.67;77.5
13058;BME280;6595;49.578;11.012;2023-11-22T01:14:23;992.804;;;3.61;77.2
13058;BME280;6595;49.578;11.012;2023-11-22T01:16:23;992.868;;;3.71;78.3
13058;BME280;6595;49.578;11.012;2023-11-22T01:18:24;992.909;;;3.59;76.3
13058;BME280;6595;49.578;11.012;2023-11-22T01:20:23;992.883;;;3.59;77.7
13058;BME280;6595;49.578;11.012;2023-11-22T01:22:24;992.873;;;3.59;78.2
13058;BME280;6595;49.578;11.012;2023-11-22T01:24:23;992.884;;;3.61;78.0
13058;BME280;6595;49.578;11.012;2023-11-22T01:26:23;992.901;;;3.64;77.7
13058;BME280;6595;49.578;11.012;2023-11-22T01:28:24;992.977;;;3.59;77.2
13058;BME280;6595;49.578;11.012;2023-11-22T01:30:23;992.919;;;3.63;78.2
13058;BME280;6595;49.578;11.012;2023-11-22T01:32:24;993.014;;;3.66;78.2
13058;BME280;6595;49.578;11.012;2023-11-22T01:34:24;992.922;;;3.64;77.2
13058;BME280;6595;49.578;11.012;2023-11-22T01:36:23;992.990;;;3.61;77.4
13058;BME280;6595;49.578;11.012;2023-11-22T01:38:24;993.037;;;3.69;78.8
13058;BME280;6595;49.578;11.012;2023-11-22T01:40:23;992.937;;;3.70;78.2
13058;BME280;6595;49.578;11.012;2023-11-22T01:42:23;992.924;;;3.63;78.1
13058;BME280;6595;49.578;11.012;2023-11-22T01:44:24;992.921;;;3.61;77.9
13058;BME280;6595;49.578;11.012;2023-11-22T01:46:24;992.978;;;3.63;78.8
13058;BME280;6595;49.578;11.012;2023-11-22T01:48:23;993.068;;;3.71;79.2
13058;BME280;6595;49.578;11.012;2023-11-22T01:50:24;993.025;;;3.69;78.4
13058;BME280;6595;49.578;11.012;2023-11-22T01:52:23;992.916;;;3.66;78.7
13058;BME280;6595;49.578;11.012;2023-11-22T01:54:24;993.089;;;3.67;78.0
13058;BME280;6595;49.578;11.012;2023-11-22T01:56:26;993.002;;;3.70;78.2
13058;BME280;6595;49.578;11.012;2023-11-22T01:58:23;993.091;;;3.63;78.2
13058;BME280;6595;49.578;11.012;2023-11-22T02:00:25;993.102;;;3.66;78.5
13058;BME280;6595;49.578;11.012;2023-11-22T02:02:24;993.163;;;3.70;78.9
13058;BME280;6595;49.578;11.012;2023-11-22T02:04:24;993.086;;;3.70;78.0
13058;BME280;6595;49.578;11.012;2023-11-22T02:06:24;993.115;;;3.69;78.5
13058;BME280;6595;49.578;11.012;2023-11-22T02:08:24;993.068;;;3.70;78.9
13058;BME280;6595;49.578;11.012;2023-11-22T02:10:24;993.180;;;3.69;78.7
13058;BME280;6595;49.578;11.012;2023-11-22T02:12:23;993.153;;;3.59;78.3
13058;BME280;6595;49.578;11.012;2023-11-22T02:14:24;993.093;;;3.59;78.1
13058;BME280;6595;49.578;11.012;2023-11-22T02:16:24;993.199;;;3.64;78.5
13058;BME280;6595;49.578;11.012;2023-11-22T02:18:23;993.178;;;3.57;77.1
13058;BME280;6595;49.578;11.012;2023-11-22T02:20:24;993.253;;;3.54;77.3
13058;BME280;6595;49.578;11.012;2023-11-22T02:22:23;993.253;;;3.54;77.3
13058;BME280;6595;49.578;11.012;2023-11-22T02:24:23;993.328;;;3.54;77.0
13058;BME280;6595;49.578;11.012;2023-11-22T02:26:24;993.393;;;3.50;76.4
13058;BME280;6595;49.578;11.012;2023-11-22T02:28:23;993.464;;;3.49;77.0
13058;BME280;6595;49.578;11.012;2023-11-22T02:30:23;993.413;;;3.50;77.1
13058;BME280;6595;49.578;11.012;2023-11-22T02:32:24;993.420;;;3.46;77.5
13058;BME280;6595;49.578;11.012;2023-11-22T02:34:23;993.520;;;3.37;76.9
13058;BME280;6595;49.578;11.012;2023-11-22T02:36:23;993.479;;;3.37;77.1
13058;BME280;6595;49.578;11.012;2023-11-22T02:38:23;993.438;;;3.44;78.2
13058;BME280;6595;49.578;11.012;2023-11-22T02:40:23;993.487;;;3.39;77.9
13058;BME280;6595;49.578;11.012;2023-11-22T02:42:24;993.472;;;3.33;77.4
13058;BME280;6595;49.578;11.012;2023-11-22T02:44:23;993.403;;;3.33;77.7
13058;BME280;6595;49.578;11.012;2023-11-22T02:46:23;993.308;;;3.33;77.1
13058;BME280;6595;49.578;11.012;2023-11-22T02:48:24;993.388;;;3.27;76.9
13058;BME280;6595;49.578;11.012;2023-11-22T02:50:23;993.402;;;3.26;77.2
13058;BME280;6595;49.578;11.012;2023-11-22T02:52:23;993.493;;;3.27;78.1
13058;BME280;6595;49.578;11.012;2023-11-22T02:54:24;993.447;;;3.29;77.2
13058;BME280;6595;49.578;11.012;2023-11-22T02:56:24;993.598;;;3.13;77.5
13058;BME280;6595;49.578;11.012;2023-11-22T02:58:23;993.482;;;3.15;77.4
13058;BME280;6595;49.578;11.012;2023-11-22T03:00:24;993.580;;;3.24;79.0
13058;BME280;6595;49.578;11.012;2023-11-22T03:02:24;993.594;;;3.30;78.6
13058;BME280;6595;49.578;11.012;2023-11-22T03:04:23;993.553;;;3.29;77.9
13058;BME280;6595;49.578;11.012;2023-11-22T03:06:24;993.549;;;3.26;78.4
13058;BME280;6595;49.578;11.012;2023-11-22T03:08:23;993.591;;;3.19;77.6
13058;BME280;6595;49.578;11.012;2023-11-22T03:10:23;993.558;;;3.23;78.0
13058;BME280;6595;49.578;11.012;2023-11-22T03:12:24;993.570;;;3.20;77.7
13058;BME280;6595;49.578;11.012;2023-11-22T03:14:23;993.578;;;3.27;78.4
13058;BME280;6595;49.578;11.012;2023-11-22T03:16:23;993.632;;;3.23;76.9
13058;BME280;6595;49.578;11.012;2023-11-22T03:18:24;993.652;;;3.16;77.4
13058;BME280;6595;49.578;11.012;2023-11-22T03:20:23;993.696;;;3.16;77.7
13058;BME280;6595;49.578;11.012;2023-11-22T03:22:23;993.746;;;3.10;77.5
13058;BME280;6595;49.578;11.012;2023-11-22T03:24:24;993.788;;;3.20;78.0
13058;BME280;6595;49.578;11.012;2023-11-22T03:26:23;993.801;;;3.22;78.0
13058;BME280;6595;49.578;11.012;2023-11-22T03:28:24;993.839;;;3.24;77.5
13058;BME280;6595;49.578;11.012;2023-11-22T03:30:24;993.932;;;3.18;77.8
13058;BME280;6595;49.578;11.012;2023-11-22T03:32:23;993.847;;;3.18;77.9
13058;BME280;6595;49.578;11.012;2023-11-22T03:34:24;993.886;;;3.18;77.9
13058;BME280;6595;49.578;11.012;2023-11-22T03:36:24;993.837;;;3.24;78.8
13058;BME280;6595;49.578;11.012;2023-11-22T03:38:24;993.762;;;3.24;78.6
13058;BME280;6595;49.578;11.012;2023-11-22T03:40:24;993.752;;;3.18;78.4
13058;BME280;6595;49.578;11.012;2023-11-22T03:42:23;993.735;;;3.16;78.3
13058;BME280;6595;49.578;11.012;2023-11-22T03:44:23;993.840;;;3.13;79.7
13058;BME280;6595;49.578;11.012;2023-11-22T03:46:24;993.855;;;3.05;78.8
13058;BME280;6595;49.578;11.012;2023-11-22T03:48:23;994.010;;;3.08;79.3
13058;BME280;6595;49.578;11.012;2023-11-22T03:50:24;994.038;;;3.08;79.3
13058;BME280;6595;49.578;11.012;2023-11-22T03:52:23;994.081;;;3.08;79.5
13058;BME280;6595;49.578;11.012;2023-11-22T03:54:23;994.041;;;3.06;79.9
13058;BME280;6595;49.578;11.012;2023-11-22T03:56:24;994.041;;;3.06;79.9
13058;BME280;6595;49.578;11.012;2023-11-22T03:58:23;994.069;;;3.13;79.2
13058;BME280;6595;49.578;11.012;2023-11-22T04:00:24;994.189;;;3.03;79.3
13058;BME280;6595;49.578;11.012;2023-11-22T04:02:24;994.163;;;3.06;79.4
13058;BME280;6595;49.578;11.012;2023-11-22T04:04:24;994.148;;;3.09;79.8
13058;BME280;6595;49.578;11.012;2023-11-22T04:06:23;994.244;;;3.10;79.6
13058;BME280;6595;49.578;11.012;2023-11-22T04:08:24;994.376;;;3.12;79.8
13058;BME280;6595;49.578;11.012;2023-11-22T04:10:24;994.374;;;3.08;79.4
13058;BME280;6595;49.578;11.012;2023-11-22T04:12:23;994.345;;;3.05;79.1
13058;BME280;6595;49.578;11.012;2023-11-22T04:14:24;994.361;;;3.02;79.3
13058;BME280;6595;49.578;11.012;2023-11-22T04:16:23;994.508;;;3.10;79.6
13058;BME280;6595;49.578;11.012;2023-11-22T04:18:24;994.486;;;3.08;79.2
13058;BME280;6595;49.578;11.012;2023-11-22T04:20:24;994.556;;;3.10;79.9
13058;BME280;6595;49.578;11.012;2023-11-22T04:22:23;994.438;;;3.08;79.7
13058;BME280;6595;49.578;11.012;2023-11-22T04:24:24;994.570;;;3.09;79.0
13058;BME280;6595;49.578;11.012;2023-11-22T04:26:23;994.591;;;3.03;79.4
13058;BME280;6595;49.578;11.012;2023-11-22T04:28:23;994.595;;;3.13;80.2
13058;BME280;6595;49.578;11.012;2023-11-22T04:30:24;994.560;;;3.12;79.4
13058;BME280;6595;49.578;11.012;2023-11-22T04:32:23;994.635;;;3.13;79.1
13058;BME280;6595;49.578;11.012;2023-11-22T04:34:23;994.642;;;3.06;78.7
13058;BME280;6595;49.578;11.012;2023-11-22T04:36:24;994.676;;;3.09;78.8
13058;BME280;6595;49.578;11.012;2023-11-22T04:38:24;994.662;;;3.08;79.5
13058;BME280;6595;49.578;11.012;2023-11-22T04:40:23;994.654;;;3.05;78.7
13058;BME280;6595;49.578;11.012;2023-11-22T04:42:24;994.593;;;3.05;79.9
13058;BME280;6595;49.578;11.012;2023-11-22T04:44:23;994.762;;;3.06;78.9
13058;BME280;6595;49.578;11.012;2023-11-22T04:46:24;994.824;;;3.12;79.6
13058;BME280;6595;49.578;11.012;2023-11-22T04:48:24;994.865;;;3.09;78.0
13058;BME280;6595;49.578;11.012;2023-11-22T04:50:23;994.849;;;3.13;78.2
13058;BME280;6595;49.578;11.012;2023-11-22T04:52:24;994.957;;;3.13;79.5
13058;BME280;6595;49.578;11.012;2023-11-22T04:54:23;994.958;;;3.03;77.9
13058;BME280;6595;49.578;11.012;2023-11-22T04:56:23;994.846;;;3.05;78.7
13058;BME280;6595;49.578;11.012;2023-11-22T04:58:24;994.827;;;3.08;78.8
13058;BME280;6595;49.578;11.012;2023-11-22T05:00:23;995.044;;;3.09;78.7
13058;BME280;6595;49.578;11.012;2023-11-22T05:02:23;994.967;;;3.15;78.7
13058;BME280;6595;49.578;11.012;2023-11-22T05:04:24;994.916;;;3.09;78.6
13058;BME280;6595;49.578;11.012;2023-11-22T05:06:23;994.911;;;3.05;77.7
13058;BME280;6595;49.578;11.012;2023-11-22T05:08:23;994.965;;;3.00;77.8
13058;BME280;6595;49.578;11.012;2023-11-22T05:10:24;994.917;;;3.05;78.0
13058;BME280;6595;49.578;11.012;2023-11-22T05:12:23;994.932;;;3.09;78.4
13058;BME280;6595;49.578;11.012;2023-11-22T05:14:24;994.860;;;3.12;77.9
13058;BME280;6595;49.578;11.012;2023-11-22T05:16:23;994.860;;;3.12;77.9
13058;BME280;6595;49.578;11.012;2023-11-22T05:18:23;995.005;;;3.03;78.7
13058;BME280;6595;49.578;11.012;2023-11-22T05:20:24;995.001;;;2.98;78.2
13058;BME280;6595;49.578;11.012;2023-11-22T05:22:23;994.936;;;2.94;78.1
13058;BME280;6595;49.578;11.012;2023-11-22T05:24:23;995.025;;;2.82;77.7
13058;BME280;6595;49.578;11.012;2023-11-22T05:26:24;995.059;;;2.79;78.2
13058;BME280;6595;49.578;11.012;2023-11-22T05:28:23;995.110;;;2.72;78.8
13058;BME280;6595;49.578;11.012;2023-11-22T05:30:24;995.183;;;2.79;79.8
13058;BME280;6595;49.578;11.012;2023-11-22T05:32:23;995.131;;;2.78;79.2
13058;BME280;6595;49.578;11.012;2023-11-22T05:34:23;995.237;;;2.84;79.2
13058;BME280;6595;49.578;11.012;2023-11-22T05:36:24;995.275;;;2.85;79.7
13058;BME280;6595;49.578;11.012;2023-11-22T05:38:23;995.243;;;2.84;78.9
13058;BME280;6595;49.578;11.012;2023-11-22T05:40:23;995.264;;;2.79;79.6
13058;BME280;6595;49.578;11.012;2023-11-22T05:42:24;995.264;;;2.79;79.6
13058;BME280;6595;49.578;11.012;2023-11-22T05:44:23;995.409;;;2.75;78.9
13058;BME280;6595;49.578;11.012;2023-11-22T05:46:23;995.412;;;2.79;78.7
13058;BME280;6595;49.578;11.012;2023-11-22T05:48:24;995.432;;;2.75;79.2
13058;BME280;6595;49.578;11.012;2023-11-22T05:50:23;995.413;;;2.72;79.1
13058;BME280;6595;49.578;11.012;2023-11-22T05:52:23;995.321;;;2.69;78.6
13058;BME280;6595;49.578;11.012;2023-11-22T05:54:24;995.407;;;2.71;78.0
13058;BME280;6595;49.578;11.012;2023-11-22T05:56:23;995.509;;;2.66;78.8
13058;BME280;6595;49.578;11.012;2023-11-22T05:58:23;995.517;;;2.54;78.4
13058;BME280;6595;49.578;11.012;2023-11-22T06:00:24;995.434;;;2.54;78.2
13058;BME280;6595;49.578;11.012;2023-11-22T06:02:24;995.486;;;2.48;78.7
13058;BME280;6595;49.578;11.012;2023-11-22T06:04:23;995.603;;;2.41;78.2
13058;BME280;6595;49.578;11.012;2023-11-22T06:06:23;995.576;;;2.38;78.2
13058;BME280;6595;49.578;11.012;2023-11-22T06:08:24;995.568;;;2.34;78.3
13058;BME280;6595;49.578;11.012;2023-11-22T06:10:23;995.789;;;2.20;78.6
13058;BME280;6595;49.578;11.012;2023-11-22T06:12:23;995.763;;;2.22;78.9
13058;BME280;6595;49.578;11.012;2023-11-22T06:14:24;995.856;;;2.24;78.9
13058;BME280;6595;49.578;11.012;2023-11-22T06:16:23;995.882;;;2.34;79.4
13058;BME280;6595;49.578;11.012;2023-11-22T06:18:24;995.896;;;2.31;79.8
13058;BME280;6595;49.578;11.012;2023-11-22T06:20:23;995.864;;;2.34;79.5
13058;BME280;6595;49.578;11.012;2023-11-22T06:22:23;995.841;;;2.37;79.2
13058;BME280;6595;49.578;11.012;2023-11-22T06:24:23;995.922;;;2.40;79.5
13058;BME280;6595;49.578;11.012;2023-11-22T06:26:23;996.015;;;2.31;78.8
13058;BME280;6595;49.578;11.012;2023-11-22T06:28:24;996.083;;;2.37;79.3
13058;BME280;6595;49.578;11.012;2023-11-22T06:30:24;996.127;;;2.42;78.9
13058;BME280;6595;49.578;11.012;2023-11-22T06:32:23;996.076;;;2.42;79.3
13058;BME280;6595;49.578;11.012;2023-11-22T06:34:23;996.120;;;2.41;79.6
13058;BME280;6595;49.578;11.012;2023-11-22T06:36:24;996.198;;;2.38;78.9
13058;BME280;6595;49.578;11.012;2023-11-22T06:38:23;996.279;;;2.38;79.4
13058;BME280;6595;49.578;11.012;2023-11-22T06:40:24;996.333;;;2.41;79.0
13058;BME280;6595;49.578;11.012;2023-11-22T06:42:23;996.400;;;2.44;79.5
13058;BME280;6595;49.578;11.012;2023-11-22T06:44:23;996.315;;;2.42;78.3
13058;BME280;6595;49.578;11.012;2023-11-22T06:46:24;996.390;;;2.32;78.2
13058;BME280;6595;49.578;11.012;2023-11-22T06:48:23;996.318;;;2.27;78.5
13058;BME280;6595;49.578;11.012;2023-11-22T06:50:24;996.340;;;2.28;78.4
13058;BME280;6595;49.578;11.012;2023-11-22T06:52:24;996.285;;;2.28;78.7
13058;BME280;6595;49.578;11.012;2023-11-22T06:54:23;996.456;;;2.30;78.5
13058;BME280;6595;49.578;11.012;2023-11-22T06:56:24;996.409;;;2.35;78.5
13058;BME280;6595;49.578;11.012;2023-11-22T06:58:24;996.487;;;2.35;77.4
13058;BME280;6595;49.578;11.012;2023-11-22T07:00:23;996.325;;;2.30;78.4
13058;BME280;6595;49.578;11.012;2023-11-22T07:02:24;996.373;;;2.30;78.3
13058;BME280;6595;49.578;11.012;2023-11-22T07:04:24;996.480;;;2.35;78.5
13058;BME280;6595;49.578;11.012;2023-11-22T07:06:24;996.398;;;2.41;78.7
13058;BME280;6595;49.578;11.012;2023-11-22T07:08:23;996.483;;;2.37;78.1
13058;BME280;6595;49.578;11.012;2023-11-22T07:10:24;996.417;;;2.35;78.8
13058;BME280;6595;49.578;11.012;2023-11-22T07:12:23;996.380;;;2.41;78.8
13058;BME280;6595;49.578;11.012;2023-11-22T07:14:23;996.455;;;2.37;78.3
13058;BME280;6595;49.578;11.012;2023-11-22T07:16:24;996.498;;;2.32;78.4
13058;BME280;6595;49.578;11.012;2023-11-22T07:18:24;996.545;;;2.40;79.1
13058;BME280;6595;49.578;11.012;2023-11-22T07:20:23;996.573;;;2.44;78.9
13058;BME280;6595;49.578;11.012;2023-11-22T07:22:23;996.676;;;2.41;78.7
13058;BME280;6595;49.578;11.012;2023-11-22T07:24:24;996.716;;;2.47;78.3
13058;BME280;6595;49.578;11.012;2023-11-22T07:26:23;996.750;;;2.44;78.1
13058;BME280;6595;49.578;11.012;2023-11-22T07:28:23;996.709;;;2.41;78.1
13058;BME280;6595;49.578;11.012;2023-11-22T07:30:24;996.711;;;2.38;78.3
13058;BME280;6595;49.578;11.012;2023-11-22T07:32:23;996.727;;;2.42;77.6
13058;BME280;6595;49.578;11.012;2023-11-22T07:34:23;996.729;;;2.44;77.9
13058;BME280;6595;49.578;11.012;2023-11-22T07:36:23;996.698;;;2.44;78.0
13058;BME280;6595;49.578;11.012;2023-11-22T07:38:24;996.756;;;2.42;78.1
13058;BME280;6595;49.578;11.012;2023-11-22T07:40:23;996.892;;;2.41;78.1
13058;BME280;6595;49.578;11.012;2023-11-22T07:42:24;996.885;;;2.41;77.1
13058;BME280;6595;49.578;11.012;2023-11-22T07:44:24;996.870;;;2.38;77.0
13058;BME280;6595;49.578;11.012;2023-11-22T07:46:23;996.919;;;2.42;76.9
13058;BME280;6595;49.578;11.012;2023-11-22T07:48:24;996.890;;;2.41;77.7
13058;BME280;6595;49.578;11.012;2023-11-22T07:50:23;996.942;;;2.34;76.6
13058;BME280;6595;49.578;11.012;2023-11-22T07:52:23;997.031;;;2.25;76.6
13058;BME280;6595;49.578;11.012;2023-11-22T07:54:24;996.972;;;2.34;77.9
13058;BME280;6595;49.578;11.012;2023-11-22T07:56:23;997.051;;;2.32;77.0
13058;BME280;6595;49.578;11.012;2023-11-22T07:58:23;997.134;;;2.38;77.5
13058;BME280;6595;49.578;11.012;2023-11-22T08:00:24;997.096;;;2.37;76.4
13058;BME280;6595;49.578;11.012;2023-11-22T08:02:23;997.163;;;2.30;76.5
13058;BME280;6595;49.578;11.012;2023-11-22T08:04:23;997.172;;;2.34;76.9
13058;BME280;6595;49.578;11.012;2023-11-22T08:06:24;997.164;;;2.40;77.1
13058;BME280;6595;49.578;11.012;2023-11-22T08:08:24;997.307;;;2.30;76.5
13058;BME280;6595;49.578;11.012;2023-11-22T08:10:24;997.249;;;2.25;78.6
13058;BME280;6595;49.578;11.012;2023-11-22T08:12:23;997.255;;;2.00;81.0
13058;BME280;6595;49.578;11.012;2023-11-22T08:14:23;997.127;;;1.99;81.5
13058;BME280;6595;49.578;11.012;2023-11-22T08:16:25;997.146;;;1.90;81.9
13058;BME280;6595;49.578;11.012;2023-11-22T08:18:23;997.195;;;1.92;81.9
13058;BME280;6595;49.578;11.012;2023-11-22T08:20:23;997.203;;;2.03;82.2
13058;BME280;6595;49.578;11.012;2023-11-22T08:22:24;997.284;;;1.97;81.6
13058;BME280;6595;49.578;11.012;2023-11-22T08:24:24;997.310;;;1.93;82.1
13058;BME280;6595;49.578;11.012;2023-11-22T08:26:23;997.260;;;1.94;82.0
13058;BME280;6595;49.578;11.012;2023-11-22T08:28:24;997.384;;;1.92;81.8
13058;BME280;6595;49.578;11.012;2023-11-22T08:30:23;997.386;;;1.84;81.8
13058;BME280;6595;49.578;11.012;2023-11-22T08:32:23;997.408;;;1.86;81.9
13058;BME280;6595;49.578;11.012;2023-11-22T08:34:24;997.438;;;1.90;81.3
13058;BME280;6595;49.578;11.012;2023-11-22T08:36:23;997.377;;;1.83;80.7
13058;BME280;6595;49.578;11.012;2023-11-22T08:38:23;997.395;;;1.90;81.2
13058;BME280;6595;49.578;11.012;2023-11-22T08:40:24;997.322;;;1.92;81.5
13058;BME280;6595;49.578;11.012;2023-11-22T08:42:23;997.389;;;1.89;81.1
13058;BME280;6595;49.578;11.012;2023-11-22T08:44:23;997.290;;;1.81;80.9
13058;BME280;6595;49.578;11.012;2023-11-22T08:46:24;997.356;;;1.79;80.9
13058;BME280;6595;49.578;11.012;2023-11-22T08:48:24;997.268;;;1.74;80.7
13058;BME280;6595;49.578;11.012;2023-11-22T08:50:23;997.397;;;1.86;81.6
13058;BME280;6595;49.578;11.012;2023-11-22T08:52:24;997.356;;;1.94;80.9
13058;BME280;6595;49.578;11.012;2023-11-22T08:54:23;997.414;;;1.96;80.4
13058;BME280;6595;49.578;11.012;2023-11-22T08:56:23;997.617;;;1.96;80.1
13058;BME280;6595;49.578;11.012;2023-11-22T08:58:24;997.564;;;1.89;80.1
13058;BME280;6595;49.578;11.012;2023-11-22T09:00:23;997.549;;;1.92;80.0
13058;BME280;6595;49.578;11.012;2023-11-22T09:02:23;997.497;;;2.01;80.9
13058;BME280;6595;49.578;11.012;2023-11-22T09:04:23;997.581;;;2.03;79.2
13058;BME280;6595;49.578;11.012;2023-11-22T09:06:24;997.634;;;2.04;79.0
13058;BME280;6595;49.578;11.012;2023-11-22T09:08:23;997.612;;;2.06;78.8
13058;BME280;6595;49.578;11.012;2023-11-22T09:10:24;997.495;;;1.90;77.1
13058;BME280;6595;49.578;11.012;2023-11-22T09:12:24;997.541;;;1.94;77.6
13058;BME280;6595;49.578;11.012;2023-11-22T09:14:23;997.663;;;2.07;77.8
13058;BME280;6595;49.578;11.012;2023-11-22T09:16:24;997.550;;;2.01;76.2
13058;BME280;6595;49.578;11.012;2023-11-22T09:18:23;997.487;;;1.99;76.5
13058;BME280;6595;49.578;11.012;2023-11-22T09:20:23;997.498;;;1.96;76.7
13058;BME280;6595;49.578;11.012;2023-11-22T09:22:23;997.528;;;2.07;77.2
13058;BME280;6595;49.578;11.012;2023-11-22T09:24:23;997.495;;;2.13;78.0
13058;BME280;6595;49.578;11.012;2023-11-22T09:26:24;997.548;;;2.14;77.1
13058;BME280;6595;49.578;11.012;2023-11-22T09:28:23;997.561;;;2.22;76.8
13058;BME280;6595;49.578;11.012;2023-11-22T09:30:25;997.578;;;2.28;76.9
13058;BME280;6595;49.578;11.012;2023-11-22T09:32:23;997.485;;;2.21;75.5
13058;BME280;6595;49.578;11.012;2023-11-22T09:34:24;997.526;;;2.18;75.0
13058;BME280;6595;49.578;11.012;2023-11-22T09:36:23;997.593;;;2.28;76.0
13058;BME280;6595;49.578;11.012;2023-11-22T09:38:24;997.601;;;2.37;76.1
13058;BME280;6595;49.578;11.012;2023-11-22T09:40:24;997.573;;;2.44;74.4
13058;BME280;6595;49.578;11.012;2023-11-22T09:42:24;997.573;;;2.44;74.4
13058;BME280;6595;49.578;11.012;2023-11-22T09:44:24;997.690;;;2.25;75.3
13058;BME280;6595;49.578;11.012;2023-11-22T09:46:23;997.669;;;2.31;74.7
13058;BME280;6595;49.578;11.012;2023-11-22T09:48:24;997.759;;;2.24;73.8
13058;BME280;6595;49.578;11.012;2023-11-22T09:50:35;997.707;;;2.31;74.9
13058;BME280;6595;49.578;11.012;2023-11-22T09:52:25;997.889;;;2.24;74.8
13058;BME280;6595;49.578;11.012;2023-11-22T09:54:25;997.929;;;2.28;74.8
13058;BME280;6595;49.578;11.012;2023-11-22T09:56:24;998.099;;;2.28;75.9
13058;BME280;6595;49.578;11.012;2023-11-22T09:58:23;998.152;;;2.28;75.0
13058;BME280;6595;49.578;11.012;2023-11-22T10:00:24;998.100;;;2.40;76.0
13058;BME280;6595;49.578;11.012;2023-11-22T10:02:24;998.039;;;2.45;76.0
13058;BME280;6595;49.578;11.012;2023-11-22T10:04:23;998.126;;;2.49;74.9
13058;BME280;6595;49.578;11.012;2023-11-22T10:06:24;998.053;;;2.27;74.2
13058;BME280;6595;49.578;11.012;2023-11-22T10:08:23;998.059;;;2.37;74.5
13058;BME280;6595;49.578;11.012;2023-11-22T10:10:23;998.185;;;2.40;74.7
13058;BME280;6595;49.578;11.012;2023-11-22T10:12:24;998.154;;;2.25;73.6
13058;BME280;6595;49.578;11.012;2023-11-22T10:14:24;998.106;;;2.35;75.2
13058;BME280;6595;49.578;11.012;2023-11-22T10:16:23;998.078;;;2.41;75.2
13058;BME280;6595;49.578;11.012;2023-11-22T10:18:28;998.058;;;2.47;74.3
13058;BME280;6595;49.578;11.012;2023-11-22T10:20:24;998.081;;;2.35;74.3
13058;BME280;6595;49.578;11.012;2023-11-22T10:22:24;998.081;;;2.35;74.3
13058;BME280;6595;49.578;11.012;2023-11-22T10:24:23;998.181;;;2.41;74.4
13058;BME280;6595;49.578;11.012;2023-11-22T10:26:25;998.180;;;2.45;74.7
13058;BME280;6595;49.578;11.012;2023-11-22T10:28:26;998.138;;;2.55;73.6
13058;BME280;6595;49.578;11.012;2023-11-22T10:30:23;998.187;;;2.58;73.7
13058;BME280;6595;49.578;11.012;2023-11-22T10:32:24;998.156;;;2.62;74.3
13058;BME280;6595;49.578;11.012;2023-11-22T10:34:25;998.098;;;2.66;74.5
13058;BME280;6595;49.578;11.012;2023-11-22T10:36:24;998.085;;;2.66;73.8
13058;BME280;6595;49.578;11.012;2023-11-22T10:38:23;998.127;;;2.69;74.0
13058;BME280;6595;49.578;11.012;2023-11-22T10:40:23;998.148;;;2.74;74.5
13058;BME280;6595;49.578;11.012;2023-11-22T10:42:25;998.143;;;2.76;74.7
13058;BME280;6595;49.578;11.012;2023-11-22T10:44:23;997.990;;;2.79;73.5
13058;BME280;6595;49.578;11.012;2023-11-22T10:46:27;997.967;;;2.89;74.7
13058;BME280;6595;49.578;11.012;2023-11-22T10:48:24;998.024;;;2.92;73.5
13058;BME280;6595;49.578;11.012;2023-11-22T10:50:23;998.058;;;2.98;73.5
13058;BME280;6595;49.578;11.012;2023-11-22T10:52:26;998.138;;;3.03;73.4
13058;BME280;6595;49.578;11.012;2023-11-22T10:54:24;998.138;;;3.03;73.4
13058;BME280;6595;49.578;11.012;2023-11-22T10:56:25;998.132;;;2.96;74.1
13058;BME280;6595;49.578;11.012;2023-11-22T10:58:23;998.103;;;3.03;73.8
13058;BME280;6595;49.578;11.012;2023-11-22T11:00:24;998.077;;;3.10;72.2